Time,TemperatureF,DewpointF,PressureIn,WindDirection,WindDirectionDegrees,WindSpeedMPH,WindSpeedGustMPH,Humidity,HourlyPrecipIn,Conditions,Clouds,dailyrainin,SoftwareType,DateUTC
2013-03-08 00:00:00,29.6,29.4,29.53,NNW,337,9.0,19.0,99,0.00,,,0.00,Weather View 32 v70,2013-03-08 05:00:00,
2013-03-08 00:02:00,29.6,29.4,29.53,NNW,337,6.0,19.0,99,0.00,,,0.00,Weather View 32 v70,2013-03-08 05:02:00,
2013-03-08 00:07:00,29.6,29.4,29.53,NW,315,13.0,19.0,99,0.00,,,0.00,Weather View 32 v70,2013-03-08 05:07:00,
2013-03-08 00:12:00,29.6,29.4,29.53,North,360,1.0,19.0,99,0.00,,,0.00,Weather View 32 v70,2013-03-08 05:12:00,
2013-03-08 00:17:00,29.6,29.6,29.53,NNW,337,6.0,19.0,100,0.00,,,0.00,Weather View 32 v70,2013-03-08 05:17:00,
2013-03-08 00:22:00,29.6,29.4,29.53,North,360,7.0,19.0,99,0.00,,,0.00,Weather View 32 v70,2013-03-08 05:22:00,
2013-03-08 00:27:00,29.7,29.5,29.53,NNW,337,0.0,19.0,99,0.00,,,0.00,Weather View 32 v70,2013-03-08 05:27:00,
2013-03-08 00:32:00,29.7,29.7,29.53,NW,315,8.0,19.0,100,0.00,,,0.00,Weather View 32 v70,2013-03-08 05:32:00,
2013-03-08 00:37:00,29.7,29.7,29.53,NNW,337,4.0,19.0,100,0.00,,,0.00,Weather View 32 v70,2013-03-08 05:37:00,
2013-03-08 00:42:00,29.7,29.7,29.53,NW,315,12.0,19.0,100,0.00,,,0.00,Weather View 32 v70,2013-03-08 05:42:00,
2013-03-08 00:47:00,29.7,29.7,29.53,NW,315,3.0,19.0,100,0.00,,,0.00,Weather View 32 v70,2013-03-08 05:47:00,
2013-03-08 00:52:00,29.7,29.7,29.53,NNW,337,7.0,19.0,100,0.00,,,0.00,Weather View 32 v70,2013-03-08 05:52:00,
2013-03-08 00:57:00,29.7,29.7,29.53,NNW,337,6.0,19.0,100,0.00,,,0.00,Weather View 32 v70,2013-03-08 05:57:00,
2013-03-08 01:02:00,29.7,29.7,29.54,NNW,337,10.0,19.0,100,0.00,,,0.00,Weather View 32 v70,2013-03-08 06:02:00,
2013-03-08 01:07:00,29.7,29.7,29.53,NNW,337,4.0,19.0,100,0.00,,,0.00,Weather View 32 v70,2013-03-08 06:07:00,
2013-03-08 01:12:00,29.7,29.7,29.54,NNW,337,11.0,19.0,100,0.00,,,0.00,Weather View 32 v70,2013-03-08 06:12:00,
2013-03-08 01:17:00,29.7,29.7,29.53,NNW,337,9.0,19.0,100,0.00,,,0.00,Weather View 32 v70,2013-03-08 06:17:00,
2013-03-08 01:22:00,29.7,29.7,29.54,NW,315,4.0,19.0,100,0.00,,,0.00,Weather View 32 v70,2013-03-08 06:22:00,
2013-03-08 01:27:00,29.7,29.7,29.54,WNW,292,7.0,19.0,100,0.00,,,0.00,Weather View 32 v70,2013-03-08 06:27:00,
2013-03-08 01:32:00,29.7,29.7,29.54,NNW,337,6.0,19.0,100,0.00,,,0.00,Weather View 32 v70,2013-03-08 06:32:00,
2013-03-08 01:37:00,29.7,29.7,29.54,North,360,13.0,19.0,100,0.00,,,0.00,Weather View 32 v70,2013-03-08 06:37:00,
2013-03-08 01:42:00,29.7,29.5,29.54,NNW,337,12.0,19.0,99,0.00,,,0.00,Weather View 32 v70,2013-03-08 06:42:00,
2013-03-08 01:47:00,29.7,29.5,29.54,WNW,292,6.0,19.0,99,0.00,,,0.00,Weather View 32 v70,2013-03-08 06:47:00,
2013-03-08 01:52:00,29.7,29.5,29.54,WNW,292,9.0,19.0,99,0.00,,,0.00,Weather View 32 v70,2013-03-08 06:52:00,
2013-03-08 01:57:00,29.7,29.5,29.53,WNW,292,4.0,19.0,99,0.00,,,0.00,Weather View 32 v70,2013-03-08 06:57:00,
2013-03-08 02:02:00,29.6,29.6,29.54,WNW,292,13.0,20.0,100,0.00,,,0.00,Weather View 32 v70,2013-03-08 07:02:00,
2013-03-08 02:07:00,29.6,29.6,29.54,NNE,22,7.0,20.0,100,0.00,,,0.00,Weather View 32 v70,2013-03-08 07:07:00,
2013-03-08 02:12:00,29.4,29.4,29.54,NNW,337,7.0,20.0,100,0.00,,,0.00,Weather View 32 v70,2013-03-08 07:12:00,
2013-03-08 02:17:00,29.4,29.4,29.54,North,360,9.0,20.0,100,0.00,,,0.00,Weather View 32 v70,2013-03-08 07:17:00,
2013-03-08 02:22:00,29.3,29.3,29.53,North,360,0.0,20.0,100,0.00,,,0.00,Weather View 32 v70,2013-03-08 07:22:00,
2013-03-08 02:27:00,29.2,29.2,29.53,WNW,292,10.0,20.0,100,0.00,,,0.00,Weather View 32 v70,2013-03-08 07:27:00,
2013-03-08 02:32:00,29.0,29.0,29.54,NW,315,9.0,20.0,100,0.00,,,0.00,Weather View 32 v70,2013-03-08 07:32:00,
2013-03-08 02:37:00,28.9,28.9,29.54,WNW,292,7.0,20.0,100,0.00,,,0.00,Weather View 32 v70,2013-03-08 07:37:00,
2013-03-08 02:42:00,28.8,28.8,29.53,NW,315,2.0,20.0,100,0.00,,,0.00,Weather View 32 v70,2013-03-08 07:42:00,
2013-03-08 02:47:00,28.6,28.6,29.54,WNW,292,2.0,20.0,100,0.00,,,0.00,Weather View 32 v70,2013-03-08 07:47:00,
2013-03-08 02:52:00,28.4,28.4,29.54,NW,315,2.0,20.0,100,0.00,,,0.00,Weather View 32 v70,2013-03-08 07:52:00,
2013-03-08 02:57:00,28.4,28.4,29.54,NNW,337,2.0,20.0,100,0.00,,,0.00,Weather View 32 v70,2013-03-08 07:57:00,
2013-03-08 03:02:00,28.3,28.3,29.54,NW,315,0.0,20.0,100,0.00,,,0.00,Weather View 32 v70,2013-03-08 08:02:00,
2013-03-08 03:07:00,28.3,28.3,29.54,WNW,292,5.0,20.0,100,0.00,,,0.00,Weather View 32 v70,2013-03-08 08:07:00,
2013-03-08 03:12:00,28.3,28.3,29.53,North,360,7.0,20.0,100,0.00,,,0.00,Weather View 32 v70,2013-03-08 08:12:00,
2013-03-08 03:17:00,28.4,28.4,29.54,NNW,337,2.0,17.0,100,0.00,,,0.00,Weather View 32 v70,2013-03-08 08:17:00,
2013-03-08 03:22:00,28.4,28.4,29.54,NW,315,0.0,17.0,100,0.00,,,0.00,Weather View 32 v70,2013-03-08 08:22:00,
2013-03-08 03:27:00,28.4,28.4,29.54,NNW,337,6.0,17.0,100,0.00,,,0.00,Weather View 32 v70,2013-03-08 08:27:00,
2013-03-08 03:32:00,28.4,28.4,29.54,WNW,292,11.0,16.0,100,0.00,,,0.00,Weather View 32 v70,2013-03-08 08:32:00,
2013-03-08 03:37:00,28.4,28.4,29.54,NW,315,4.0,16.0,100,0.00,,,0.00,Weather View 32 v70,2013-03-08 08:37:00,
2013-03-08 03:42:00,28.4,28.4,29.54,West,270,8.0,16.0,100,0.00,,,0.00,Weather View 32 v70,2013-03-08 08:42:00,
2013-03-08 03:47:00,28.4,28.4,29.54,NNW,337,9.0,16.0,100,0.00,,,0.00,Weather View 32 v70,2013-03-08 08:47:00,
2013-03-08 03:52:00,28.6,28.6,29.53,NNW,337,10.0,16.0,100,0.00,,,0.00,Weather View 32 v70,2013-03-08 08:52:00,
2013-03-08 03:57:00,28.7,28.7,29.53,WNW,292,1.0,16.0,100,0.00,,,0.00,Weather View 32 v70,2013-03-08 08:57:00,
2013-03-08 04:02:00,28.7,28.7,29.54,NNW,337,6.0,16.0,100,0.00,,,0.00,Weather View 32 v70,2013-03-08 09:02:00,
2013-03-08 04:07:00,28.8,28.8,29.54,West,270,4.0,18.0,100,0.00,,,0.00,Weather View 32 v70,2013-03-08 09:07:00,
2013-03-08 04:13:00,28.8,28.8,29.54,WNW,292,9.0,18.0,100,0.00,,,0.00,Weather View 32 v70,2013-03-08 09:13:00,
2013-03-08 04:18:00,28.8,28.8,29.53,WNW,292,5.0,18.0,100,0.00,,,0.00,Weather View 32 v70,2013-03-08 09:18:00,
2013-03-08 04:23:00,28.9,28.9,29.54,North,360,12.0,18.0,100,0.00,,,0.00,Weather View 32 v70,2013-03-08 09:23:00,
2013-03-08 04:28:00,29.0,29.0,29.54,NNW,337,7.0,18.0,100,0.00,,,0.00,Weather View 32 v70,2013-03-08 09:28:00,
2013-03-08 04:33:00,29.0,29.0,29.54,NNW,337,7.0,18.0,100,0.00,,,0.00,Weather View 32 v70,2013-03-08 09:33:00,
2013-03-08 04:38:00,29.0,29.0,29.54,North,360,1.0,18.0,100,0.00,,,0.00,Weather View 32 v70,2013-03-08 09:38:00,
2013-03-08 04:43:00,29.0,29.0,29.55,NNW,337,10.0,18.0,100,0.00,,,0.00,Weather View 32 v70,2013-03-08 09:43:00,
2013-03-08 04:48:00,28.8,28.8,29.55,NNE,22,3.0,18.0,100,0.00,,,0.00,Weather View 32 v70,2013-03-08 09:48:00,
2013-03-08 04:53:00,28.7,28.7,29.55,NNW,337,5.0,18.0,100,0.00,,,0.00,Weather View 32 v70,2013-03-08 09:53:00,
2013-03-08 04:58:00,28.6,28.6,29.55,NNW,337,4.0,18.0,100,0.00,,,0.00,Weather View 32 v70,2013-03-08 09:58:00,
2013-03-08 05:03:00,28.5,28.5,29.55,NW,315,3.0,18.0,100,0.00,,,0.00,Weather View 32 v70,2013-03-08 10:03:00,
2013-03-08 05:08:00,28.6,28.6,29.55,NNW,337,10.0,18.0,100,0.00,,,0.00,Weather View 32 v70,2013-03-08 10:08:00,
2013-03-08 05:13:00,28.7,28.7,29.55,WNW,292,9.0,18.0,100,0.00,,,0.00,Weather View 32 v70,2013-03-08 10:13:00,
2013-03-08 05:18:00,28.7,28.7,29.55,NNW,337,7.0,19.0,100,0.00,,,0.00,Weather View 32 v70,2013-03-08 10:18:00,
2013-03-08 05:23:00,28.8,28.8,29.55,NNW,337,9.0,19.0,100,0.00,,,0.00,Weather View 32 v70,2013-03-08 10:23:00,
2013-03-08 05:28:00,28.8,28.8,29.55,NW,315,14.0,19.0,100,0.00,,,0.00,Weather View 32 v70,2013-03-08 10:28:00,
2013-03-08 05:33:00,28.8,28.8,29.55,NNW,337,13.0,19.0,100,0.00,,,0.00,Weather View 32 v70,2013-03-08 10:33:00,
2013-03-08 05:38:00,28.8,28.8,29.55,NNW,337,7.0,19.0,100,0.00,,,0.00,Weather View 32 v70,2013-03-08 10:38:00,
2013-03-08 05:43:00,28.6,28.6,29.55,NNW,337,5.0,19.0,100,0.00,,,0.00,Weather View 32 v70,2013-03-08 10:43:00,
2013-03-08 05:48:00,28.4,28.4,29.56,NNE,22,3.0,19.0,100,0.00,,,0.00,Weather View 32 v70,2013-03-08 10:48:00,
2013-03-08 05:53:00,28.3,28.3,29.56,NNW,337,10.0,19.0,100,0.00,,,0.00,Weather View 32 v70,2013-03-08 10:53:00,
2013-03-08 05:58:00,28.1,28.1,29.56,NNW,337,10.0,19.0,100,0.00,,,0.00,Weather View 32 v70,2013-03-08 10:58:00,
2013-03-08 06:03:00,27.9,27.9,29.57,NNW,337,5.0,19.0,100,0.00,,,0.00,Weather View 32 v70,2013-03-08 11:03:00,
2013-03-08 06:08:00,27.7,27.7,29.57,NNW,337,6.0,19.0,100,0.00,,,0.00,Weather View 32 v70,2013-03-08 11:08:00,
2013-03-08 06:13:00,27.6,27.6,29.57,NNW,337,6.0,19.0,100,0.00,,,0.00,Weather View 32 v70,2013-03-08 11:13:00,
2013-03-08 06:18:00,27.4,27.4,29.57,NNW,337,4.0,19.0,100,0.00,,,0.00,Weather View 32 v70,2013-03-08 11:18:00,
2013-03-08 06:23:00,27.4,27.4,29.58,NW,315,6.0,19.0,100,0.00,,,0.00,Weather View 32 v70,2013-03-08 11:23:00,
2013-03-08 06:28:00,27.4,27.4,29.57,North,360,7.0,19.0,100,0.00,,,0.00,Weather View 32 v70,2013-03-08 11:28:00,
2013-03-08 06:33:00,27.6,27.6,29.57,NW,315,7.0,17.0,100,0.00,,,0.00,Weather View 32 v70,2013-03-08 11:33:00,
2013-03-08 06:38:00,27.8,27.8,29.57,NNW,337,6.0,17.0,100,0.00,,,0.00,Weather View 32 v70,2013-03-08 11:38:00,
2013-03-08 06:43:00,27.8,27.8,29.57,NNW,337,6.0,17.0,100,0.00,,,0.00,Weather View 32 v70,2013-03-08 11:43:00,
2013-03-08 06:48:00,28.0,28.0,29.57,NW,315,6.0,18.0,100,0.00,,,0.00,Weather View 32 v70,2013-03-08 11:48:00,
2013-03-08 06:53:00,28.0,28.0,29.57,NNW,337,9.0,20.0,100,0.00,,,0.00,Weather View 32 v70,2013-03-08 11:53:00,
2013-03-08 06:58:00,28.2,28.2,29.57,North,360,1.0,20.0,100,0.00,,,0.00,Weather View 32 v70,2013-03-08 11:58:00,
2013-03-08 07:03:00,28.2,28.2,29.57,NW,315,5.0,20.0,100,0.00,,,0.00,Weather View 32 v70,2013-03-08 12:03:00,
2013-03-08 07:08:00,28.3,28.3,29.57,NNW,337,5.0,20.0,100,0.00,,,0.00,Weather View 32 v70,2013-03-08 12:08:00,
2013-03-08 07:13:00,28.4,28.4,29.57,NNW,337,15.0,20.0,100,0.00,,,0.00,Weather View 32 v70,2013-03-08 12:13:00,
2013-03-08 07:18:00,28.4,28.4,29.57,NW,315,10.0,20.0,100,0.00,,,0.00,Weather View 32 v70,2013-03-08 12:18:00,
2013-03-08 07:23:00,28.6,28.6,29.58,North,360,1.0,20.0,100,0.00,,,0.00,Weather View 32 v70,2013-03-08 12:23:00,
2013-03-08 07:28:00,28.7,28.7,29.58,NNW,337,12.0,20.0,100,0.00,,,0.00,Weather View 32 v70,2013-03-08 12:28:00,
2013-03-08 07:33:00,28.8,28.8,29.59,NNW,337,6.0,20.0,100,0.00,,,0.00,Weather View 32 v70,2013-03-08 12:33:00,
2013-03-08 07:38:00,28.8,28.8,29.59,NNW,337,12.0,20.0,100,0.00,,,0.00,Weather View 32 v70,2013-03-08 12:38:00,
2013-03-08 07:43:00,28.8,28.8,29.59,North,360,9.0,22.0,100,0.00,,,0.00,Weather View 32 v70,2013-03-08 12:43:00,
2013-03-08 07:48:00,28.9,28.9,29.59,NNW,337,7.0,22.0,100,0.00,,,0.00,Weather View 32 v70,2013-03-08 12:48:00,
2013-03-08 07:53:00,28.9,28.9,29.59,NNW,337,6.0,22.0,100,0.00,,,0.00,Weather View 32 v70,2013-03-08 12:53:00,
2013-03-08 07:58:00,28.9,28.9,29.59,North,360,6.0,22.0,100,0.00,,,0.00,Weather View 32 v70,2013-03-08 12:58:00,
2013-03-08 08:03:00,29.0,29.0,29.60,NNE,22,3.0,22.0,100,0.00,,,0.00,Weather View 32 v70,2013-03-08 13:03:00,
2013-03-08 08:08:00,29.0,29.0,29.60,NW,315,10.0,22.0,100,0.00,,,0.00,Weather View 32 v70,2013-03-08 13:08:00,
2013-03-08 08:13:00,29.1,29.1,29.60,NNW,337,7.0,22.0,100,0.00,,,0.00,Weather View 32 v70,2013-03-08 13:13:00,
2013-03-08 08:18:00,29.2,29.2,29.60,WNW,292,4.0,22.0,100,0.00,,,0.00,Weather View 32 v70,2013-03-08 13:18:00,
2013-03-08 08:23:00,29.2,29.2,29.60,NNW,337,6.0,22.0,100,0.00,,,0.00,Weather View 32 v70,2013-03-08 13:23:00,
2013-03-08 08:28:00,29.4,29.4,29.61,NNW,337,12.0,22.0,100,0.00,,,0.00,Weather View 32 v70,2013-03-08 13:28:00,
2013-03-08 08:33:00,29.4,29.4,29.61,North,360,9.0,22.0,100,0.00,,,0.00,Weather View 32 v70,2013-03-08 13:33:00,
2013-03-08 08:38:00,29.5,29.5,29.60,NNW,337,12.0,22.0,100,0.00,,,0.00,Weather View 32 v70,2013-03-08 13:38:00,
2013-03-08 08:43:00,29.6,29.6,29.61,North,360,10.0,22.0,100,0.00,,,0.00,Weather View 32 v70,2013-03-08 13:43:00,
2013-03-08 08:48:00,29.7,29.5,29.61,NNW,337,14.0,18.0,99,0.00,,,0.00,Weather View 32 v70,2013-03-08 13:48:00,
2013-03-08 08:53:00,29.8,29.6,29.61,NNW,337,7.0,18.0,99,0.00,,,0.00,Weather View 32 v70,2013-03-08 13:53:00,
2013-03-08 08:58:00,29.9,29.2,29.61,WNW,292,8.0,19.0,97,0.00,,,0.00,Weather View 32 v70,2013-03-08 13:58:00,
2013-03-08 09:03:00,30.0,29.3,29.61,WNW,292,6.0,19.0,97,0.00,,,0.00,Weather View 32 v70,2013-03-08 14:03:00,
2013-03-08 09:08:00,30.1,29.1,29.61,NNW,337,8.0,19.0,96,0.00,,,0.00,Weather View 32 v70,2013-03-08 14:08:00,
2013-03-08 09:13:00,30.2,29.2,29.61,NNW,337,11.0,19.0,96,0.00,,,0.00,Weather View 32 v70,2013-03-08 14:13:00,
2013-03-08 09:18:00,30.3,29.6,29.61,North,360,9.0,19.0,97,0.00,,,0.00,Weather View 32 v70,2013-03-08 14:18:00,
2013-03-08 09:23:00,30.2,29.5,29.61,NNW,337,9.0,19.0,97,0.00,,,0.00,Weather View 32 v70,2013-03-08 14:23:00,
2013-03-08 09:28:00,30.3,29.8,29.62,NNW,337,12.0,19.0,98,0.00,,,0.00,Weather View 32 v70,2013-03-08 14:28:00,
2013-03-08 09:33:00,30.3,29.3,29.62,WNW,292,8.0,21.0,96,0.00,,,0.00,Weather View 32 v70,2013-03-08 14:33:00,
2013-03-08 09:38:00,30.1,29.1,29.62,NNW,337,5.0,22.0,96,0.00,,,0.00,Weather View 32 v70,2013-03-08 14:38:00,
2013-03-08 09:43:00,30.4,29.4,29.62,NW,315,10.0,22.0,96,0.00,,,0.00,Weather View 32 v70,2013-03-08 14:43:00,
2013-03-08 09:48:00,30.3,29.6,29.62,NW,315,11.0,22.0,97,0.00,,,0.00,Weather View 32 v70,2013-03-08 14:48:00,
2013-03-08 09:53:00,30.7,29.7,29.62,North,360,9.0,22.0,96,0.00,,,0.00,Weather View 32 v70,2013-03-08 14:53:00,
2013-03-08 09:58:00,31.2,29.1,29.61,NNW,337,17.0,22.0,92,0.00,,,0.00,Weather View 32 v70,2013-03-08 14:58:00,
2013-03-08 10:04:00,31.1,29.3,29.62,NNW,337,10.0,22.0,93,0.00,,,0.00,Weather View 32 v70,2013-03-08 15:04:00,
2013-03-08 10:09:00,31.2,29.1,29.63,WNW,292,6.0,22.0,92,0.00,,,0.00,Weather View 32 v70,2013-03-08 15:09:00,
2013-03-08 10:14:00,31.2,28.6,29.62,NW,315,12.0,22.0,90,0.00,,,0.00,Weather View 32 v70,2013-03-08 15:14:00,
2013-03-08 10:19:00,31.2,28.9,29.62,WNW,292,4.0,22.0,91,0.00,,,0.00,Weather View 32 v70,2013-03-08 15:19:00,
2013-03-08 10:24:00,31.1,28.2,29.62,NNW,337,15.0,22.0,89,0.00,,,0.00,Weather View 32 v70,2013-03-08 15:24:00,
2013-03-08 10:29:00,31.1,28.2,29.63,NNW,337,6.0,22.0,89,0.00,,,0.00,Weather View 32 v70,2013-03-08 15:29:00,
2013-03-08 10:34:00,31.3,28.4,29.63,NNW,337,9.0,22.0,89,0.00,,,0.00,Weather View 32 v70,2013-03-08 15:34:00,
2013-03-08 10:39:00,31.4,28.0,29.63,NNW,337,9.0,22.0,87,0.00,,,0.00,Weather View 32 v70,2013-03-08 15:39:00,
2013-03-08 10:44:00,31.5,28.1,29.63,NW,315,10.0,22.0,87,0.00,,,0.00,Weather View 32 v70,2013-03-08 15:44:00,
2013-03-08 10:49:00,32.8,28.5,29.61,NNW,337,7.0,22.0,84,0.00,,,0.00,Weather View 32 v70,2013-03-08 15:49:00,
2013-03-08 10:54:00,32.4,27.8,29.61,NNE,22,9.0,22.0,83,0.00,,,0.00,Weather View 32 v70,2013-03-08 15:54:00,
2013-03-08 10:59:00,33.2,28.9,29.61,NNW,337,10.0,22.0,84,0.00,,,0.00,Weather View 32 v70,2013-03-08 15:59:00,
2013-03-08 11:04:00,33.9,28.7,29.62,NNW,337,2.0,22.0,81,0.00,,,0.00,Weather View 32 v70,2013-03-08 16:04:00,
2013-03-08 11:09:00,34.4,28.9,29.62,NNE,22,7.0,22.0,80,0.00,,,0.00,Weather View 32 v70,2013-03-08 16:09:00,
2013-03-08 11:14:00,34.8,28.6,29.62,NNW,337,11.0,23.0,78,0.00,,,0.00,Weather View 32 v70,2013-03-08 16:14:00,
2013-03-08 11:19:00,34.6,28.4,29.61,NW,315,5.0,23.0,78,0.00,,,0.00,Weather View 32 v70,2013-03-08 16:19:00,
2013-03-08 11:24:00,35.1,28.3,29.62,NW,315,8.0,23.0,76,0.00,,,0.00,Weather View 32 v70,2013-03-08 16:24:00,
2013-03-08 11:29:00,35.4,28.3,29.62,North,360,12.0,23.0,75,0.00,,,0.00,Weather View 32 v70,2013-03-08 16:29:00,
2013-03-08 11:34:00,34.8,28.0,29.62,NNW,337,12.0,23.0,76,0.00,,,0.00,Weather View 32 v70,2013-03-08 16:34:00,
2013-03-08 11:39:00,34.6,28.8,29.62,WNW,292,7.0,23.0,79,0.00,,,0.00,Weather View 32 v70,2013-03-08 16:39:00,
2013-03-08 11:44:00,34.9,28.7,29.61,North,360,10.0,23.0,78,0.00,,,0.00,Weather View 32 v70,2013-03-08 16:44:00,
2013-03-08 11:49:00,35.0,28.2,29.62,NNW,337,14.0,24.0,76,0.00,,,0.00,Weather View 32 v70,2013-03-08 16:49:00,
2013-03-08 11:54:00,34.6,27.8,29.62,WNW,292,13.0,24.0,76,0.00,,,0.00,Weather View 32 v70,2013-03-08 16:54:00,
2013-03-08 11:59:00,35.1,28.0,29.61,North,360,14.0,24.0,75,0.00,,,0.00,Weather View 32 v70,2013-03-08 16:59:00,
2013-03-08 12:04:00,34.8,28.0,29.62,North,360,7.0,24.0,76,0.00,,,0.00,Weather View 32 v70,2013-03-08 17:04:00,
2013-03-08 12:09:00,35.6,28.1,29.61,NNE,22,11.0,24.0,74,0.00,,,0.00,Weather View 32 v70,2013-03-08 17:09:00,
2013-03-08 12:14:00,36.0,28.2,29.61,NNW,337,14.0,24.0,73,0.00,,,0.00,Weather View 32 v70,2013-03-08 17:14:00,
2013-03-08 12:19:00,36.6,28.4,29.62,NNW,337,9.0,24.0,72,0.00,,,0.00,Weather View 32 v70,2013-03-08 17:19:00,
2013-03-08 12:24:00,36.3,28.5,29.62,NNW,337,10.0,24.0,73,0.00,,,0.00,Weather View 32 v70,2013-03-08 17:24:00,
2013-03-08 12:29:00,36.2,28.0,29.61,North,360,10.0,24.0,72,0.00,,,0.00,Weather View 32 v70,2013-03-08 17:29:00,
2013-03-08 12:34:00,35.9,28.1,29.61,NNW,337,12.0,24.0,73,0.00,,,0.00,Weather View 32 v70,2013-03-08 17:34:00,
2013-03-08 12:39:00,35.9,28.7,29.61,North,360,10.0,24.0,75,0.00,,,0.00,Weather View 32 v70,2013-03-08 17:39:00,
2013-03-08 12:44:00,36.3,28.5,29.62,NNW,337,9.0,24.0,73,0.00,,,0.00,Weather View 32 v70,2013-03-08 17:44:00,
2013-03-08 12:49:00,36.3,28.1,29.61,NNW,337,13.0,24.0,72,0.00,,,0.00,Weather View 32 v70,2013-03-08 17:49:00,
2013-03-08 12:54:00,36.5,28.3,29.61,NW,315,7.0,24.0,72,0.00,,,0.00,Weather View 32 v70,2013-03-08 17:54:00,
2013-03-08 12:59:00,36.6,28.4,29.61,NW,315,10.0,24.0,72,0.00,,,0.00,Weather View 32 v70,2013-03-08 17:59:00,
2013-03-08 13:04:00,37.1,28.9,29.60,NNW,337,6.0,23.0,72,0.00,,,0.00,Weather View 32 v70,2013-03-08 18:04:00,
2013-03-08 13:09:00,36.9,28.0,29.61,NNW,337,9.0,23.0,70,0.00,,,0.00,Weather View 32 v70,2013-03-08 18:09:00,
2013-03-08 13:14:00,36.2,27.7,29.61,North,360,12.0,23.0,71,0.00,,,0.00,Weather View 32 v70,2013-03-08 18:14:00,
2013-03-08 13:19:00,35.9,28.7,29.61,North,360,11.0,23.0,75,0.00,,,0.00,Weather View 32 v70,2013-03-08 18:19:00,
2013-03-08 13:24:00,36.1,28.6,29.61,West,270,3.0,23.0,74,0.00,,,0.00,Weather View 32 v70,2013-03-08 18:24:00,
2013-03-08 13:29:00,36.2,28.7,29.61,NNW,337,9.0,23.0,74,0.00,,,0.00,Weather View 32 v70,2013-03-08 18:29:00,
2013-03-08 13:34:00,36.0,28.2,29.61,NNW,337,10.0,23.0,73,0.00,,,0.00,Weather View 32 v70,2013-03-08 18:34:00,
2013-03-08 13:39:00,36.1,28.6,29.61,North,360,8.0,23.0,74,0.00,,,0.00,Weather View 32 v70,2013-03-08 18:39:00,
2013-03-08 13:44:00,35.9,28.4,29.61,WNW,292,15.0,23.0,74,0.00,,,0.00,Weather View 32 v70,2013-03-08 18:44:00,
2013-03-08 13:49:00,35.8,28.6,29.62,North,360,3.0,23.0,75,0.00,,,0.00,Weather View 32 v70,2013-03-08 18:49:00,
2013-03-08 13:54:00,35.9,28.4,29.60,NNW,337,9.0,23.0,74,0.00,,,0.00,Weather View 32 v70,2013-03-08 18:54:00,
2013-03-08 13:59:00,35.8,28.6,29.62,NNW,337,9.0,23.0,75,0.00,,,0.00,Weather View 32 v70,2013-03-08 18:59:00,
2013-03-08 14:04:00,36.0,28.5,29.62,North,360,7.0,23.0,74,0.00,,,0.00,Weather View 32 v70,2013-03-08 19:04:00,
2013-03-08 14:09:00,36.1,28.6,29.62,NNW,337,0.0,23.0,74,0.00,,,0.00,Weather View 32 v70,2013-03-08 19:09:00,
2013-03-08 14:14:00,36.2,28.4,29.62,NNW,337,12.0,23.0,73,0.00,,,0.00,Weather View 32 v70,2013-03-08 19:14:00,
2013-03-08 14:19:00,36.1,27.9,29.62,NNE,22,10.0,23.0,72,0.00,,,0.00,Weather View 32 v70,2013-03-08 19:19:00,
2013-03-08 14:24:00,36.4,28.6,29.62,NNW,337,13.0,23.0,73,0.00,,,0.00,Weather View 32 v70,2013-03-08 19:24:00,
2013-03-08 14:29:00,36.7,28.9,29.62,NNW,337,17.0,23.0,73,0.00,,,0.00,Weather View 32 v70,2013-03-08 19:29:00,
2013-03-08 14:34:00,36.4,27.9,29.63,NNW,337,7.0,23.0,71,0.00,,,0.00,Weather View 32 v70,2013-03-08 19:34:00,
2013-03-08 14:39:00,36.3,27.8,29.63,NNW,337,9.0,23.0,71,0.00,,,0.00,Weather View 32 v70,2013-03-08 19:39:00,
2013-03-08 14:44:00,36.4,27.9,29.63,NNW,337,17.0,23.0,71,0.00,,,0.00,Weather View 32 v70,2013-03-08 19:44:00,
2013-03-08 14:49:00,36.8,28.3,29.64,NNW,337,12.0,22.0,71,0.00,,,0.00,Weather View 32 v70,2013-03-08 19:49:00,
2013-03-08 14:54:00,37.7,28.8,29.62,NW,315,9.0,22.0,70,0.00,,,0.00,Weather View 32 v70,2013-03-08 19:54:00,
2013-03-08 15:00:00,38.2,28.2,29.62,NNW,337,12.0,22.0,67,0.00,,,0.00,Weather View 32 v70,2013-03-08 20:00:00,
2013-03-08 15:05:00,38.6,28.2,29.62,WNW,292,8.0,22.0,66,0.00,,,0.00,Weather View 32 v70,2013-03-08 20:05:00,
2013-03-08 15:10:00,39.3,28.5,29.62,NNW,337,13.0,22.0,65,0.00,,,0.00,Weather View 32 v70,2013-03-08 20:10:00,
2013-03-08 15:15:00,38.7,28.3,29.62,NNW,337,6.0,22.0,66,0.00,,,0.00,Weather View 32 v70,2013-03-08 20:15:00,
2013-03-08 15:20:00,38.4,27.7,29.62,NNW,337,8.0,22.0,65,0.00,,,0.00,Weather View 32 v70,2013-03-08 20:20:00,
2013-03-08 15:25:00,38.4,28.0,29.62,NNW,337,16.0,22.0,66,0.00,,,0.00,Weather View 32 v70,2013-03-08 20:25:00,
2013-03-08 15:30:00,38.3,27.6,29.62,NNW,337,12.0,22.0,65,0.00,,,0.00,Weather View 32 v70,2013-03-08 20:30:00,
2013-03-08 15:35:00,38.8,28.4,29.62,NNE,22,12.0,22.0,66,0.00,,,0.00,Weather View 32 v70,2013-03-08 20:35:00,
2013-03-08 15:40:00,38.8,27.7,29.61,North,360,8.0,22.0,64,0.00,,,0.00,Weather View 32 v70,2013-03-08 20:40:00,
2013-03-08 15:45:00,39.0,27.8,29.63,WNW,292,16.0,22.0,64,0.00,,,0.00,Weather View 32 v70,2013-03-08 20:45:00,
2013-03-08 15:50:00,38.4,27.3,29.62,NNW,337,7.0,22.0,64,0.00,,,0.00,Weather View 32 v70,2013-03-08 20:50:00,
2013-03-08 15:55:00,38.7,27.6,29.63,NNW,337,16.0,22.0,64,0.00,,,0.00,Weather View 32 v70,2013-03-08 20:55:00,
2013-03-08 16:00:00,38.2,27.1,29.63,NNW,337,13.0,22.0,64,0.00,,,0.00,Weather View 32 v70,2013-03-08 21:00:00,
2013-03-08 16:05:00,37.9,27.9,29.63,North,360,9.0,22.0,67,0.00,,,0.00,Weather View 32 v70,2013-03-08 21:05:00,
2013-03-08 16:10:00,37.7,27.7,29.63,NNW,337,11.0,22.0,67,0.00,,,0.00,Weather View 32 v70,2013-03-08 21:10:00,
2013-03-08 16:15:00,37.2,28.0,29.64,NW,315,7.0,22.0,69,0.00,,,0.00,Weather View 32 v70,2013-03-08 21:15:00,
2013-03-08 16:20:00,36.7,27.5,29.64,NNW,337,14.0,22.0,69,0.00,,,0.00,Weather View 32 v70,2013-03-08 21:20:00,
2013-03-08 16:25:00,36.4,27.2,29.65,NNW,337,10.0,23.0,69,0.00,,,0.00,Weather View 32 v70,2013-03-08 21:25:00,
2013-03-08 16:30:00,36.5,27.6,29.65,NNW,337,8.0,23.0,70,0.00,,,0.00,Weather View 32 v70,2013-03-08 21:30:00,
2013-03-08 16:35:00,36.2,27.7,29.66,NW,315,3.0,23.0,71,0.00,,,0.00,Weather View 32 v70,2013-03-08 21:35:00,
2013-03-08 16:40:00,36.0,27.5,29.65,North,360,11.0,23.0,71,0.00,,,0.00,Weather View 32 v70,2013-03-08 21:40:00,
2013-03-08 16:45:00,36.0,27.5,29.66,NNW,337,10.0,23.0,71,0.00,,,0.00,Weather View 32 v70,2013-03-08 21:45:00,
2013-03-08 16:50:00,36.1,27.6,29.66,NNW,337,11.0,23.0,71,0.00,,,0.00,Weather View 32 v70,2013-03-08 21:50:00,
2013-03-08 16:55:00,36.3,27.8,29.66,NW,315,8.0,23.0,71,0.00,,,0.00,Weather View 32 v70,2013-03-08 21:55:00,
2013-03-08 17:00:00,35.8,28.0,29.66,NNW,337,5.0,23.0,73,0.00,,,0.00,Weather View 32 v70,2013-03-08 22:00:00,
2013-03-08 17:05:00,35.4,27.6,29.67,NNW,337,9.0,23.0,73,0.00,,,0.00,Weather View 32 v70,2013-03-08 22:05:00,
2013-03-08 17:10:00,35.3,28.2,29.67,NNW,337,13.0,23.0,75,0.00,,,0.00,Weather View 32 v70,2013-03-08 22:10:00,
2013-03-08 17:15:00,35.4,28.3,29.67,NNW,337,15.0,23.0,75,0.00,,,0.00,Weather View 32 v70,2013-03-08 22:15:00,
2013-03-08 17:20:00,35.2,27.7,29.67,NNW,337,3.0,23.0,74,0.00,,,0.00,Weather View 32 v70,2013-03-08 22:20:00,
2013-03-08 17:25:00,34.8,27.7,29.67,NW,315,5.0,23.0,75,0.00,,,0.00,Weather View 32 v70,2013-03-08 22:25:00,
2013-03-08 17:30:00,34.4,27.6,29.68,NNW,337,7.0,21.0,76,0.00,,,0.00,Weather View 32 v70,2013-03-08 22:30:00,
2013-03-08 17:35:00,34.2,28.1,29.67,NNW,337,8.0,21.0,78,0.00,,,0.00,Weather View 32 v70,2013-03-08 22:35:00,
2013-03-08 17:40:00,34.0,27.9,29.68,NNW,337,4.0,21.0,78,0.00,,,0.00,Weather View 32 v70,2013-03-08 22:40:00,
2013-03-08 17:45:00,33.7,27.9,29.68,North,360,1.0,17.0,79,0.00,,,0.00,Weather View 32 v70,2013-03-08 22:45:00,
2013-03-08 17:50:00,33.5,27.7,29.67,NE,45,5.0,17.0,79,0.00,,,0.00,Weather View 32 v70,2013-03-08 22:50:00,
2013-03-08 17:55:00,33.4,27.9,29.68,NNW,337,7.0,17.0,80,0.00,,,0.00,Weather View 32 v70,2013-03-08 22:55:00,
2013-03-08 18:01:00,33.3,27.8,29.68,North,360,0.0,17.0,80,0.00,,,0.00,Weather View 32 v70,2013-03-08 23:01:00,
2013-03-08 18:06:00,33.2,27.7,29.68,NNE,22,1.0,17.0,80,0.00,,,0.00,Weather View 32 v70,2013-03-08 23:06:00,
2013-03-08 18:11:00,33.1,27.6,29.68,NNE,22,0.0,17.0,80,0.00,,,0.00,Weather View 32 v70,2013-03-08 23:11:00,
2013-03-08 18:16:00,33.0,27.8,29.68,NW,315,0.0,16.0,81,0.00,,,0.00,Weather View 32 v70,2013-03-08 23:16:00,
2013-03-08 18:21:00,32.8,27.9,29.68,NNW,337,5.0,16.0,82,0.00,,,0.00,Weather View 32 v70,2013-03-08 23:21:00,
2013-03-08 18:26:00,32.8,27.6,29.68,North,360,2.0,16.0,81,0.00,,,0.00,Weather View 32 v70,2013-03-08 23:26:00,
2013-03-08 18:31:00,32.8,27.9,29.68,NNW,337,0.0,15.0,82,0.00,,,0.00,Weather View 32 v70,2013-03-08 23:31:00,
2013-03-08 18:36:00,32.7,28.1,29.69,NNW,337,0.0,15.0,83,0.00,,,0.00,Weather View 32 v70,2013-03-08 23:36:00,
2013-03-08 18:41:00,32.6,27.7,29.69,South,180,0.0,15.0,82,0.00,,,0.00,Weather View 32 v70,2013-03-08 23:41:00,
2013-03-08 18:46:00,32.4,27.8,29.69,NNW,337,3.0,15.0,83,0.00,,,0.00,Weather View 32 v70,2013-03-08 23:46:00,
2013-03-08 18:51:00,32.4,27.8,29.69,WNW,292,3.0,15.0,83,0.00,,,0.00,Weather View 32 v70,2013-03-08 23:51:00,
2013-03-08 18:56:00,32.3,27.7,29.69,NW,315,4.0,15.0,83,0.00,,,0.00,Weather View 32 v70,2013-03-08 23:56:00,
2013-03-08 19:01:00,32.2,27.6,29.69,NNW,337,0.0,15.0,83,0.00,,,0.00,Weather View 32 v70,2013-03-09 00:01:00,
2013-03-08 19:06:00,32.1,27.5,29.69,NW,315,4.0,15.0,83,0.00,,,0.00,Weather View 32 v70,2013-03-09 00:06:00,
2013-03-08 19:11:00,32.0,27.4,29.69,NW,315,0.0,15.0,83,0.00,,,0.00,Weather View 32 v70,2013-03-09 00:11:00,
2013-03-08 19:16:00,31.8,27.5,29.70,East,90,0.0,15.0,84,0.00,,,0.00,Weather View 32 v70,2013-03-09 00:16:00,
2013-03-08 19:21:00,31.7,27.4,29.70,North,360,0.0,15.0,84,0.00,,,0.00,Weather View 32 v70,2013-03-09 00:21:00,
2013-03-08 19:26:00,31.5,27.5,29.71,NNE,22,0.0,15.0,85,0.00,,,0.00,Weather View 32 v70,2013-03-09 00:26:00,
2013-03-08 19:31:00,31.4,27.4,29.71,North,360,1.0,10.0,85,0.00,,,0.00,Weather View 32 v70,2013-03-09 00:31:00,
2013-03-08 19:36:00,31.4,27.4,29.71,WNW,292,1.0,10.0,85,0.00,,,0.00,Weather View 32 v70,2013-03-09 00:36:00,
2013-03-08 19:41:00,31.3,27.6,29.71,North,360,0.0,10.0,86,0.00,,,0.00,Weather View 32 v70,2013-03-09 00:41:00,
2013-03-08 19:46:00,31.1,27.4,29.71,NNE,22,0.0,10.0,86,0.00,,,0.00,Weather View 32 v70,2013-03-09 00:46:00,
2013-03-08 19:51:00,30.9,27.8,29.71,NNW,337,0.0,10.0,88,0.00,,,0.00,Weather View 32 v70,2013-03-09 00:51:00,
2013-03-08 19:56:00,31.0,27.6,29.71,ENE,67,0.0,10.0,87,0.00,,,0.00,Weather View 32 v70,2013-03-09 00:56:00,
2013-03-08 20:01:00,30.9,28.0,29.71,NW,315,0.0,10.0,89,0.00,,,0.00,Weather View 32 v70,2013-03-09 01:01:00,
2013-03-08 20:06:00,30.8,27.9,29.71,NW,315,1.0,10.0,89,0.00,,,0.00,Weather View 32 v70,2013-03-09 01:06:00,
2013-03-08 20:11:00,30.8,27.9,29.71,NW,315,0.0,10.0,89,0.00,,,0.00,Weather View 32 v70,2013-03-09 01:11:00,
2013-03-08 20:16:00,30.8,27.9,29.71,WNW,292,0.0,9.0,89,0.00,,,0.00,Weather View 32 v70,2013-03-09 01:16:00,
2013-03-08 20:21:00,30.7,27.8,29.71,West,270,0.0,9.0,89,0.00,,,0.00,Weather View 32 v70,2013-03-09 01:21:00,
2013-03-08 20:26:00,30.4,27.5,29.71,WSW,247,0.0,9.0,89,0.00,,,0.00,Weather View 32 v70,2013-03-09 01:26:00,
2013-03-08 20:31:00,30.4,27.5,29.71,WSW,247,0.0,9.0,89,0.00,,,0.00,Weather View 32 v70,2013-03-09 01:31:00,
2013-03-08 20:37:00,30.0,26.9,29.71,SW,225,0.0,9.0,88,0.00,,,0.00,Weather View 32 v70,2013-03-09 01:37:00,
2013-03-08 20:42:00,29.9,27.6,29.71,WNW,292,2.0,9.0,91,0.00,,,0.00,Weather View 32 v70,2013-03-09 01:42:00,
2013-03-08 20:47:00,30.0,27.7,29.71,NW,315,2.0,9.0,91,0.00,,,0.00,Weather View 32 v70,2013-03-09 01:47:00,
2013-03-08 20:52:00,30.0,27.7,29.71,West,270,0.0,9.0,91,0.00,,,0.00,Weather View 32 v70,2013-03-09 01:52:00,
2013-03-08 20:57:00,29.8,27.5,29.71,North,360,0.0,9.0,91,0.00,,,0.00,Weather View 32 v70,2013-03-09 01:57:00,
2013-03-08 21:02:00,29.6,27.3,29.71,NNE,22,0.0,7.0,91,0.00,,,0.00,Weather View 32 v70,2013-03-09 02:02:00,
2013-03-08 21:07:00,29.3,27.0,29.71,NNE,22,0.0,7.0,91,0.00,,,0.00,Weather View 32 v70,2013-03-09 02:07:00,
2013-03-08 21:12:00,28.9,26.9,29.71,SSE,157,0.0,7.0,92,0.00,,,0.00,Weather View 32 v70,2013-03-09 02:12:00,
2013-03-08 21:17:00,28.7,27.2,29.71,SSE,157,0.0,6.0,94,0.00,,,0.00,Weather View 32 v70,2013-03-09 02:17:00,
2013-03-08 21:22:00,28.8,27.5,29.71,SSE,157,0.0,6.0,95,0.00,,,0.00,Weather View 32 v70,2013-03-09 02:22:00,
2013-03-08 21:27:00,28.4,26.6,29.71,SSE,157,0.0,6.0,93,0.00,,,0.00,Weather View 32 v70,2013-03-09 02:27:00,
2013-03-08 21:32:00,28.1,26.6,29.71,NNE,22,0.0,6.0,94,0.00,,,0.00,Weather View 32 v70,2013-03-09 02:32:00,
2013-03-08 21:37:00,28.1,26.9,29.71,WNW,292,0.0,6.0,95,0.00,,,0.00,Weather View 32 v70,2013-03-09 02:37:00,
2013-03-08 21:42:00,28.0,27.0,29.71,WSW,247,0.0,6.0,96,0.00,,,0.00,Weather View 32 v70,2013-03-09 02:42:00,
2013-03-08 21:47:00,27.9,27.4,29.70,SW,225,0.0,4.0,98,0.00,,,0.00,Weather View 32 v70,2013-03-09 02:47:00,
2013-03-08 21:52:00,27.7,27.2,29.70,WSW,247,0.0,4.0,98,0.00,,,0.00,Weather View 32 v70,2013-03-09 02:52:00,
2013-03-08 21:57:00,27.6,27.1,29.70,West,270,0.0,4.0,98,0.00,,,0.00,Weather View 32 v70,2013-03-09 02:57:00,
2013-03-08 22:02:00,27.4,27.2,29.70,NW,315,0.0,3.0,99,0.00,,,0.00,Weather View 32 v70,2013-03-09 03:02:00,
2013-03-08 22:07:00,27.8,27.8,29.70,WNW,292,0.0,4.0,100,0.00,,,0.00,Weather View 32 v70,2013-03-09 03:07:00,
2013-03-08 22:12:00,27.8,27.8,29.70,West,270,0.0,4.0,100,0.00,,,0.00,Weather View 32 v70,2013-03-09 03:12:00,
2013-03-08 22:17:00,27.5,27.5,29.69,WSW,247,0.0,4.0,100,0.00,,,0.00,Weather View 32 v70,2013-03-09 03:17:00,
2013-03-08 22:22:00,27.3,27.3,29.69,WSW,247,0.0,4.0,100,0.00,,,0.00,Weather View 32 v70,2013-03-09 03:22:00,
2013-03-08 22:27:00,27.2,27.0,29.69,WSW,247,0.0,4.0,99,0.00,,,0.00,Weather View 32 v70,2013-03-09 03:27:00,
2013-03-08 22:32:00,26.9,26.4,29.69,SSW,202,0.0,4.0,98,0.00,,,0.00,Weather View 32 v70,2013-03-09 03:32:00,
2013-03-08 22:37:00,26.8,25.6,29.69,SSW,202,1.0,4.0,95,0.00,,,0.00,Weather View 32 v70,2013-03-09 03:37:00,
2013-03-08 22:42:00,26.9,25.7,29.70,SW,225,0.0,4.0,95,0.00,,,0.00,Weather View 32 v70,2013-03-09 03:42:00,
2013-03-08 22:47:00,27.0,25.5,29.70,SSW,202,0.0,4.0,94,0.00,,,0.00,Weather View 32 v70,2013-03-09 03:47:00,
2013-03-08 22:52:00,27.1,25.1,29.69,SSW,202,0.0,4.0,92,0.00,,,0.00,Weather View 32 v70,2013-03-09 03:52:00,
2013-03-08 22:57:00,27.0,25.2,29.69,SW,225,0.0,4.0,93,0.00,,,0.00,Weather View 32 v70,2013-03-09 03:57:00,
2013-03-08 23:02:00,27.3,25.8,29.69,WNW,292,0.0,4.0,94,0.00,,,0.00,Weather View 32 v70,2013-03-09 04:02:00,
2013-03-08 23:07:00,27.3,25.8,29.69,West,270,0.0,4.0,94,0.00,,,0.00,Weather View 32 v70,2013-03-09 04:07:00,
2013-03-08 23:12:00,27.3,26.6,29.69,WSW,247,0.0,4.0,97,0.00,,,0.00,Weather View 32 v70,2013-03-09 04:12:00,
2013-03-08 23:17:00,27.2,26.5,29.69,WSW,247,0.0,3.0,97,0.00,,,0.00,Weather View 32 v70,2013-03-09 04:17:00,
2013-03-08 23:22:00,27.1,26.6,29.69,SSW,202,0.0,3.0,98,0.00,,,0.00,Weather View 32 v70,2013-03-09 04:22:00,
2013-03-08 23:27:00,27.0,25.5,29.69,SSW,202,0.0,3.0,94,0.00,,,0.00,Weather View 32 v70,2013-03-09 04:27:00,
2013-03-08 23:32:00,26.7,24.9,29.69,SSW,202,0.0,3.0,93,0.00,,,0.00,Weather View 32 v70,2013-03-09 04:32:00,
2013-03-08 23:37:00,26.7,24.9,29.69,SW,225,0.0,3.0,93,0.00,,,0.00,Weather View 32 v70,2013-03-09 04:37:00,
2013-03-08 23:42:00,26.7,24.9,29.69,South,180,0.0,3.0,93,0.00,,,0.00,Weather View 32 v70,2013-03-09 04:42:00,
2013-03-08 23:47:00,26.6,25.1,29.69,ESE,112,0.0,2.0,94,0.00,,,0.00,Weather View 32 v70,2013-03-09 04:47:00,
2013-03-08 23:52:00,26.9,26.2,29.69,ENE,67,0.0,2.0,97,0.00,,,0.00,Weather View 32 v70,2013-03-09 04:52:00,
2013-03-08 23:57:00,26.8,25.8,29.69,SSE,157,1.0,2.0,96,0.00,,,0.00,Weather View 32 v70,2013-03-09 04:57:00,